createdAt,value
2023-03-29T00:02:03.683Z,101780.75
2023-03-29T00:04:31.392Z,101784.56
2023-03-29T00:07:03.935Z,101776.66
2023-03-29T00:09:33.397Z,101779.38
2023-03-29T00:12:01.544Z,101775.56
2023-03-29T00:14:30.804Z,101773.41
2023-03-29T00:16:58.906Z,101777.75
2023-03-29T00:19:29.057Z,101774.22
2023-03-29T00:21:55.538Z,101763.34
2023-03-29T00:24:23.829Z,101761.72
2023-03-29T00:26:53.157Z,101762.53
2023-03-29T00:29:19.608Z,101749.75
2023-03-29T00:31:52.366Z,101743.50
2023-03-29T00:34:20.840Z,101739.16
2023-03-29T00:36:50.852Z,101732.06
2023-03-29T00:39:18.252Z,101735.59
2023-03-29T00:41:51.052Z,101727.44
2023-03-29T00:44:52.699Z,101723.66
2023-03-29T00:47:24.835Z,101722.00
2023-03-29T00:49:52.802Z,101717.41
2023-03-29T00:52:21.762Z,101714.41
2023-03-29T00:54:53.005Z,101706.25
2023-03-29T00:57:22.758Z,101709.78
2023-03-29T00:59:51.855Z,101707.88
2023-03-29T01:02:22.527Z,101703.00
2023-03-29T01:04:56.024Z,101702.47
2023-03-29T01:07:30.675Z,101697.56
2023-03-29T01:10:16.186Z,101687.25
2023-03-29T01:12:51.502Z,101684.53
2023-03-29T01:15:21.892Z,101675.81
2023-03-29T01:17:50.651Z,101683.72
2023-03-29T01:20:21.406Z,101682.34
2023-03-29T01:23:03.519Z,101672.03
2023-03-29T01:25:41.334Z,101668.22
2023-03-29T01:28:18.051Z,101670.41
2023-03-29T01:30:59.802Z,101671.75
2023-03-29T01:33:33.867Z,101668.47
2023-03-29T01:36:14.060Z,101672.81
2023-03-29T01:38:57.172Z,101672.00
2023-03-29T01:41:35.467Z,101662.75
2023-03-29T01:44:30.876Z,101657.06
2023-03-29T01:47:27.246Z,101658.41
2023-03-29T01:50:02.458Z,101651.63
2023-03-29T01:52:38.591Z,101652.97
2023-03-29T01:55:17.200Z,101653.53
2023-03-29T01:57:46.845Z,101648.63
2023-03-29T02:00:22.329Z,101644.81
2023-03-29T02:02:51.401Z,101648.34
2023-03-29T02:05:20.781Z,101640.19
2023-03-29T02:07:50.496Z,101634.47
2023-03-29T02:10:18.362Z,101631.75
2023-03-29T02:12:44.929Z,101632.84
2023-03-29T02:15:14.720Z,101635.84
2023-03-29T02:17:41.776Z,101625.75
2023-03-29T02:20:17.465Z,101620.03
2023-03-29T02:22:51.101Z,101622.78
2023-03-29T02:25:18.656Z,101613.78
2023-03-29T02:27:45.816Z,101621.97
2023-03-29T02:30:13.672Z,101618.16
2023-03-29T02:33:04.685Z,101617.31
2023-03-29T02:35:34.993Z,101608.06
2023-03-29T02:38:06.973Z,101609.72
2023-03-29T02:40:34.813Z,101613.50
2023-03-29T02:43:03.396Z,101608.06
2023-03-29T02:45:31.317Z,101608.88
2023-03-29T02:48:07.457Z,101606.72
2023-03-29T02:50:42.967Z,101605.06
2023-03-29T02:53:19.796Z,101594.75
2023-03-29T02:55:48.552Z,101595.00
2023-03-29T02:58:15.645Z,101595.81
2023-03-29T03:00:46.150Z,101595.00
2023-03-29T03:03:13.309Z,101590.38
2023-03-29T03:05:43.495Z,101593.09
2023-03-29T03:08:10.627Z,101593.91
2023-03-29T03:10:38.930Z,101601.28
2023-03-29T03:13:05.787Z,101581.41
2023-03-29T03:15:35.644Z,101579.22
2023-03-29T03:18:04.285Z,101571.06
2023-03-29T03:20:31.902Z,101564.81
2023-03-29T03:22:58.533Z,101567.78
2023-03-29T03:25:25.387Z,101558.81
2023-03-29T03:27:52.277Z,101563.16
2023-03-29T03:30:21.789Z,101566.72
2023-03-29T03:33:20.765Z,101562.34
2023-03-29T03:35:47.935Z,101566.97
2023-03-29T03:38:20.045Z,101554.47
2023-03-29T03:40:55.135Z,101558.81
2023-03-29T03:43:22.416Z,101553.38
2023-03-29T03:45:50.017Z,101560.72
2023-03-29T03:48:20.137Z,101562.63
2023-03-29T03:50:58.181Z,101551.47
2023-03-29T03:53:29.410Z,101556.09
2023-03-29T03:56:13.964Z,101567.53
2023-03-29T03:58:58.885Z,101565.63
2023-03-29T04:01:28.130Z,101561.00
2023-03-29T04:04:14.964Z,101557.44
2023-03-29T04:06:52.772Z,101561.00
2023-03-29T04:09:46.477Z,101570.78
2023-03-29T04:12:41.585Z,101557.19
2023-03-29T04:15:10.341Z,101550.66
2023-03-29T04:17:38.764Z,101551.72
2023-03-29T04:20:17.519Z,101554.19
2023-03-29T04:22:46.957Z,101541.66
2023-03-29T04:25:13.564Z,101547.91
2023-03-29T04:27:58.180Z,101544.06
2023-03-29T04:30:47.246Z,101542.47
2023-03-29T04:33:19.043Z,101538.63
2023-03-29T04:35:51.076Z,101534.81
2023-03-29T04:38:22.932Z,101533.19
2023-03-29T04:40:50.884Z,101532.09
2023-03-29T04:43:23.842Z,101522.03
2023-03-29T04:46:00.020Z,101531.00
2023-03-29T04:48:45.106Z,101534.81
2023-03-29T04:51:12.679Z,101527.19
2023-03-29T04:53:39.945Z,101525.03
2023-03-29T04:56:08.044Z,101532.41
2023-03-29T04:58:54.849Z,101529.69
2023-03-29T05:01:21.884Z,101521.50
2023-03-29T05:03:56.726Z,101525.03
2023-03-29T05:06:29.219Z,101532.13
2023-03-29T05:08:55.703Z,101527.50
2023-03-29T05:11:33.352Z,101522.03
2023-03-29T05:14:03.154Z,101517.41
2023-03-29T05:16:34.575Z,101519.06
2023-03-29T05:19:01.705Z,101506.78
2023-03-29T05:21:29.353Z,101514.69
2023-03-29T05:23:58.632Z,101522.56
2023-03-29T05:26:51.713Z,101519.84
2023-03-29T05:29:18.609Z,101509.78
2023-03-29T05:31:49.871Z,101518.47
2023-03-29T05:34:17.009Z,101529.09
2023-03-29T05:36:51.674Z,101524.47
2023-03-29T05:39:18.913Z,101525.00
2023-03-29T05:41:46.732Z,101518.47
2023-03-29T05:44:42.399Z,101531.81
2023-03-29T05:47:16.465Z,101529.88
2023-03-29T05:49:43.187Z,101519.53
2023-03-29T05:52:14.499Z,101529.34
2023-03-29T05:54:42.157Z,101528.25
2023-03-29T05:57:09.667Z,101531.50
2023-03-29T05:59:36.957Z,101530.41
2023-03-29T06:02:07.392Z,101531.72
2023-03-29T06:04:38.468Z,101524.09
2023-03-29T06:07:25.506Z,101522.72
2023-03-29T06:10:17.970Z,101531.44
2023-03-29T06:12:49.395Z,101534.69
2023-03-29T06:15:17.684Z,101528.69
2023-03-29T06:17:50.699Z,101539.84
2023-03-29T06:20:18.442Z,101526.75
2023-03-29T06:22:49.646Z,101532.47
2023-03-29T06:25:17.466Z,101529.19
2023-03-29T06:27:48.826Z,101531.88
2023-03-29T06:30:17.642Z,101534.81
2023-03-29T06:32:51.264Z,101540.53
2023-03-29T06:35:27.918Z,101529.59
2023-03-29T06:38:03.797Z,101536.66
2023-03-29T06:41:01.510Z,101532.81
2023-03-29T06:43:35.765Z,101531.16
2023-03-29T06:46:12.330Z,101535.75
2023-03-29T06:48:53.363Z,101541.94
2023-03-29T06:51:23.309Z,101537.56
2023-03-29T06:53:53.377Z,101535.91
2023-03-29T06:56:20.657Z,101535.06
2023-03-29T06:58:55.321Z,101537.22
2023-03-29T07:01:52.536Z,101545.88
2023-03-29T07:04:26.224Z,101545.31
2023-03-29T07:07:19.963Z,101554.78
2023-03-29T07:09:55.508Z,101558.50
2023-03-29T07:12:40.925Z,101550.63
2023-03-29T07:15:09.518Z,101546.13
2023-03-29T07:17:55.909Z,101539.28
2023-03-29T07:20:26.988Z,101543.34
2023-03-29T07:23:04.667Z,101549.91
2023-03-29T07:25:32.313Z,101548.00
2023-03-29T07:27:58.936Z,101551.25
2023-03-29T07:30:31.647Z,101543.88
2023-03-29T07:33:10.662Z,101551.47
2023-03-29T07:35:43.831Z,101551.41
2023-03-29T07:38:10.755Z,101553.03
2023-03-29T07:40:41.605Z,101551.94
2023-03-29T07:43:27.056Z,101552.41
2023-03-29T07:45:53.912Z,101551.25
2023-03-29T07:48:22.193Z,101563.75
2023-03-29T07:50:55.968Z,101560.63
2023-03-29T07:53:29.552Z,101564.34
2023-03-29T07:55:58.215Z,101564.25
2023-03-29T07:58:44.498Z,101555.19
2023-03-29T08:01:17.161Z,101559.50
2023-03-29T08:04:04.807Z,101550.69
2023-03-29T08:06:50.555Z,101558.88
2023-03-29T08:09:18.206Z,101553.94
2023-03-29T08:11:44.960Z,101559.63
2023-03-29T08:14:24.053Z,101556.31
2023-03-29T08:17:02.183Z,101548.63
2023-03-29T08:19:30.627Z,101555.94
2023-03-29T08:22:04.613Z,101553.66
2023-03-29T08:25:07.437Z,101551.38
2023-03-29T08:27:39.794Z,101550.75
2023-03-29T08:30:09.497Z,101553.41
2023-03-29T08:32:42.075Z,101542.91
2023-03-29T08:35:09.765Z,101534.03
2023-03-29T08:37:43.040Z,101540.56
2023-03-29T08:40:21.918Z,101536.91
2023-03-29T08:43:29.975Z,101526.69
2023-03-29T08:46:47.965Z,101528.66
2023-03-29T08:49:25.644Z,101525.63
2023-03-29T08:51:57.950Z,101525.84
2023-03-29T08:54:29.178Z,101532.34
2023-03-29T08:57:31.088Z,101535.00
2023-03-29T09:00:06.998Z,101544.19
2023-03-29T09:02:40.070Z,101552.94
2023-03-29T09:05:34.857Z,101555.66
2023-03-29T09:08:16.989Z,101550.91
2023-03-29T09:10:50.349Z,101557.72
2023-03-29T09:13:42.308Z,101558.22
2023-03-29T09:16:43.350Z,101541.28
2023-03-29T09:19:32.098Z,101547.78
2023-03-29T09:22:33.695Z,101548.81
2023-03-29T09:25:06.264Z,101544.06
2023-03-29T09:27:46.558Z,101554.41
2023-03-29T09:30:39.275Z,101547.31
2023-03-29T09:33:20.125Z,101539.69
2023-03-29T09:36:11.760Z,101544.47
2023-03-29T09:38:44.268Z,101542.94
2023-03-29T09:42:11.790Z,101550.88
2023-03-29T09:44:49.858Z,101553.22
2023-03-29T09:47:26.338Z,101544.69
2023-03-29T09:50:19.845Z,101551.44
2023-03-29T09:52:56.448Z,101538.81
2023-03-29T09:55:28.122Z,101545.44
2023-03-29T09:58:34.315Z,101544.31
2023-03-29T10:01:04.801Z,101551.63
2023-03-29T10:03:34.881Z,101544.63
2023-03-29T10:06:12.499Z,101551.22
2023-03-29T10:08:52.480Z,101547.66
2023-03-29T10:11:43.294Z,101549.19
2023-03-29T10:14:17.022Z,101537.59
2023-03-29T10:16:46.629Z,101536.91
2023-03-29T10:19:22.900Z,101538.50
2023-03-29T10:21:56.275Z,101536.16
2023-03-29T10:24:25.443Z,101529.13
2023-03-29T10:27:07.989Z,101528.56
2023-03-29T10:29:43.020Z,101531.31
2023-03-29T10:32:16.838Z,101528.56
2023-03-29T10:34:46.965Z,101533.25
2023-03-29T10:37:16.482Z,101521.97
2023-03-29T10:39:43.325Z,101531.06
2023-03-29T10:42:14.961Z,101523.63
2023-03-29T10:44:41.677Z,101518.78
2023-03-29T10:47:16.443Z,101512.28
2023-03-29T10:49:47.348Z,101511.84
2023-03-29T10:52:19.642Z,101519.31
2023-03-29T10:54:47.457Z,101521.69
2023-03-29T10:57:22.205Z,101516.47
2023-03-29T11:01:07.555Z,101507.28
2023-03-29T11:03:53.592Z,101495.72
2023-03-29T11:06:43.721Z,101490.47
2023-03-29T11:09:42.987Z,101501.97
2023-03-29T11:12:24.065Z,101509.31
2023-03-29T11:15:25.404Z,101509.28
2023-03-29T11:18:13.714Z,101498.69
2023-03-29T11:21:13.797Z,101491.06
2023-03-29T11:24:03.460Z,101482.34
2023-03-29T11:26:36.049Z,101481.72
2023-03-29T11:29:47.965Z,101485.00
2023-03-29T11:32:29.122Z,101495.03
2023-03-29T11:35:03.316Z,101481.44
2023-03-29T11:37:53.872Z,101483.69
2023-03-29T11:40:51.413Z,101493.41
2023-03-29T11:43:27.813Z,101495.53
2023-03-29T11:46:03.968Z,101487.84
2023-03-29T11:48:37.181Z,101492.75
2023-03-29T11:51:13.581Z,101483.84
2023-03-29T11:53:58.982Z,101487.44
2023-03-29T11:56:44.489Z,101491.81
2023-03-29T11:59:22.245Z,101495.38
2023-03-29T12:01:59.738Z,101500.09
2023-03-29T12:04:41.901Z,101509.16
2023-03-29T12:07:11.189Z,101507.38
2023-03-29T12:10:00.371Z,101497.03
2023-03-29T12:12:32.887Z,101495.56
2023-03-29T12:15:21.542Z,101492.94
2023-03-29T12:17:51.558Z,101492.94
2023-03-29T12:20:23.337Z,101491.19
2023-03-29T12:22:51.748Z,101481.19
2023-03-29T12:25:26.788Z,101478.56
2023-03-29T12:28:18.077Z,101482.94
2023-03-29T12:31:03.734Z,101482.78
2023-03-29T12:33:57.231Z,101485.34
2023-03-29T12:37:11.084Z,101481.84
2023-03-29T12:39:46.902Z,101479.72
2023-03-29T12:42:53.369Z,101469.38
2023-03-29T12:45:48.340Z,101476.31
2023-03-29T12:48:19.193Z,101483.44
2023-03-29T12:50:56.860Z,101480.19
2023-03-29T12:53:36.508Z,101473.56
2023-03-29T12:56:03.808Z,101461.59
2023-03-29T12:58:36.364Z,101446.72
2023-03-29T13:01:22.133Z,101431.25
2023-03-29T13:03:52.067Z,101424.16
2023-03-29T13:06:30.656Z,101415.28
2023-03-29T13:09:04.886Z,101419.19
2023-03-29T13:11:40.658Z,101414.03
2023-03-29T13:14:17.925Z,101413.56
2023-03-29T13:16:44.460Z,101402.09
2023-03-29T13:19:18.415Z,101406.97
2023-03-29T13:22:10.825Z,101396.44
2023-03-29T13:24:52.985Z,101397.09
2023-03-29T13:27:39.652Z,101386.44
2023-03-29T13:30:20.011Z,101379.63
2023-03-29T13:33:19.991Z,101377.34
2023-03-29T13:36:16.417Z,101376.84
2023-03-29T13:38:51.634Z,101383.00
2023-03-29T13:41:40.196Z,101387.69
2023-03-29T13:44:21.814Z,101386.09
2023-03-29T13:46:50.041Z,101382.50
2023-03-29T13:49:26.228Z,101384.28
2023-03-29T13:52:34.756Z,101384.78
2023-03-29T13:55:25.080Z,101381.53
2023-03-29T13:58:02.601Z,101370.00
2023-03-29T14:00:41.884Z,101358.50
2023-03-29T14:03:14.053Z,101357.19
2023-03-29T14:05:47.542Z,101343.41
2023-03-29T14:08:32.423Z,101339.03
2023-03-29T14:11:02.494Z,101339.34
2023-03-29T14:13:29.834Z,101331.69
2023-03-29T14:16:03.034Z,101327.66
2023-03-29T14:18:44.670Z,101326.81
2023-03-29T14:21:16.807Z,101321.81
2023-03-29T14:24:03.377Z,101326.50
2023-03-29T14:26:34.647Z,101332.31
2023-03-29T14:29:02.542Z,101328.91
2023-03-29T14:31:35.523Z,101327.16
2023-03-29T14:34:05.897Z,101310.59
2023-03-29T14:36:33.736Z,101315.97
2023-03-29T14:39:08.372Z,101312.03
2023-03-29T14:41:38.002Z,101310.38
2023-03-29T14:44:06.773Z,101301.97
2023-03-29T14:46:34.789Z,101290.47
2023-03-29T14:49:09.715Z,101301.97
2023-03-29T14:52:06.240Z,101291.22
2023-03-29T14:55:04.068Z,101282.47
2023-03-29T14:57:39.877Z,101274.13
2023-03-29T15:00:42.562Z,101275.22
2023-03-29T15:04:10.983Z,101274.53
2023-03-29T15:06:52.846Z,101266.06
2023-03-29T15:09:24.842Z,101265.41
2023-03-29T15:11:53.755Z,101251.75
2023-03-29T15:14:21.668Z,101256.69
2023-03-29T15:16:51.790Z,101251.97
2023-03-29T15:19:25.455Z,101243.13
2023-03-29T15:21:55.551Z,101247.72
2023-03-29T15:24:34.364Z,101246.09
2023-03-29T15:27:06.868Z,101231.50
2023-03-29T15:29:37.050Z,101232.44
2023-03-29T15:32:03.962Z,101228.19
2023-03-29T15:34:32.760Z,101229.81
2023-03-29T15:37:00.419Z,101225.91
2023-03-29T15:39:29.445Z,101218.78
2023-03-29T15:41:57.203Z,101220.13
2023-03-29T15:44:29.337Z,101224.38
2023-03-29T15:46:57.780Z,101213.22
2023-03-29T15:49:26.823Z,101210.78
2023-03-29T15:51:54.021Z,101208.25
2023-03-29T15:54:21.881Z,101203.88
2023-03-29T15:56:52.935Z,101208.25
2023-03-29T15:59:29.884Z,101201.94
2023-03-29T16:01:59.288Z,101182.63
2023-03-29T16:04:36.260Z,101180.34
2023-03-29T16:07:17.333Z,101171.41
2023-03-29T16:09:45.816Z,101179.34
2023-03-29T16:12:13.266Z,101175.78
2023-03-29T16:14:43.251Z,101166.34
2023-03-29T16:17:09.938Z,101159.22
2023-03-29T16:19:36.566Z,101149.22
2023-03-29T16:22:07.081Z,101140.47
2023-03-29T16:24:35.497Z,101143.56
2023-03-29T16:27:03.112Z,101143.44
2023-03-29T16:29:30.253Z,101133.56
2023-03-29T16:32:05.493Z,101125.28
2023-03-29T16:34:33.401Z,101130.81
2023-03-29T16:37:25.035Z,101123.69
2023-03-29T16:39:54.819Z,101111.84
2023-03-29T16:42:22.819Z,101103.94
2023-03-29T16:44:49.289Z,101095.22
2023-03-29T16:47:18.359Z,101087.28
2023-03-29T16:49:48.511Z,101092.81
2023-03-29T16:52:15.064Z,101098.53
2023-03-29T16:54:42.462Z,101106.31
2023-03-29T16:57:10.398Z,101110.22
2023-03-29T16:59:36.960Z,101109.75
2023-03-29T17:02:03.590Z,101099.41
2023-03-29T17:04:30.103Z,101086.78
2023-03-29T17:06:56.970Z,101095.72
2023-03-29T17:09:23.498Z,101100.44
2023-03-29T17:11:51.247Z,101099.16
2023-03-29T17:14:18.066Z,101092.03
2023-03-29T17:16:44.869Z,101092.72
2023-03-29T17:19:11.525Z,101094.66
2023-03-29T17:21:37.958Z,101083.16
2023-03-29T17:24:04.742Z,101075.25
2023-03-29T17:26:37.972Z,101076.03
2023-03-29T17:29:06.346Z,101079.94
2023-03-29T17:31:34.825Z,101076.84
2023-03-29T17:34:01.610Z,101070.53
2023-03-29T17:36:32.972Z,101072.81
2023-03-29T17:39:02.445Z,101057.81
2023-03-29T17:41:31.106Z,101052.63
2023-03-29T17:43:58.173Z,101053.78
2023-03-29T17:46:34.541Z,101053.31
2023-03-29T17:49:03.212Z,101044.91
2023-03-29T17:51:32.071Z,101037.34
2023-03-29T17:53:59.601Z,101053.38
2023-03-29T17:56:26.615Z,101038.19
2023-03-29T17:58:53.374Z,101036.44
2023-03-29T18:01:20.351Z,101033.56
2023-03-29T18:03:48.168Z,101028.63
2023-03-29T18:06:18.029Z,101037.53
2023-03-29T18:08:44.640Z,101036.28
2023-03-29T18:11:15.998Z,101036.47
2023-03-29T18:13:49.399Z,101033.25
2023-03-29T18:16:16.289Z,101029.56
2023-03-29T18:18:43.686Z,101027.47
2023-03-29T18:21:10.847Z,101022.16
2023-03-29T18:23:42.227Z,101027.91
2023-03-29T18:26:09.460Z,101019.84
2023-03-29T18:28:37.458Z,101020.50
2023-03-29T18:31:05.399Z,101018.41
2023-03-29T18:33:35.347Z,101015.19
2023-03-29T18:36:10.849Z,101004.38
2023-03-29T18:38:40.434Z,101001.16
2023-03-29T18:41:08.541Z,101002.97
2023-03-29T18:43:35.941Z,101002.03
2023-03-29T18:46:03.402Z,101007.06
2023-03-29T18:48:31.100Z,101001.09
2023-03-29T18:50:57.768Z,101007.75
2023-03-29T18:53:24.639Z,101008.88
2023-03-29T18:55:52.572Z,101015.84
2023-03-29T18:58:22.714Z,101006.81
2023-03-29T19:00:49.984Z,100999.69
2023-03-29T19:03:16.838Z,101001.97
2023-03-29T19:05:43.485Z,101005.84
2023-03-29T19:08:10.042Z,101004.91
2023-03-29T19:10:39.053Z,101005.56
2023-03-29T19:13:06.512Z,101002.34
2023-03-29T19:15:34.711Z,100988.94
2023-03-29T19:18:01.719Z,100996.03
2023-03-29T19:20:29.916Z,100994.75
2023-03-29T19:22:57.649Z,100986.38
2023-03-29T19:25:24.175Z,100999.47
2023-03-29T19:27:52.320Z,100995.50
2023-03-29T19:30:20.220Z,100984.81
2023-03-29T19:32:46.899Z,100980.94
2023-03-29T19:35:14.405Z,100978.19
2023-03-29T19:37:41.036Z,100966.72
2023-03-29T19:40:10.954Z,100962.38
2023-03-29T19:42:38.324Z,100958.47
2023-03-29T19:45:07.395Z,100950.72
2023-03-29T19:47:34.503Z,100938.09
2023-03-29T19:50:02.167Z,100939.25
2023-03-29T19:52:30.300Z,100925.50
2023-03-29T19:54:58.813Z,100926.97
2023-03-29T19:57:25.538Z,100923.41
2023-03-29T19:59:53.942Z,100922.59
2023-03-29T20:02:20.491Z,100913.88
2023-03-29T20:04:47.496Z,100915.34
2023-03-29T20:07:14.060Z,100904.69
2023-03-29T20:09:44.628Z,100906.16
2023-03-29T20:12:11.806Z,100901.81
2023-03-29T20:14:40.110Z,100889.22
2023-03-29T20:17:07.227Z,100885.66
2023-03-29T20:19:36.590Z,100889.53
2023-03-29T20:22:07.367Z,100882.75
2023-03-29T20:24:34.896Z,100880.03
2023-03-29T20:27:01.644Z,100872.59
2023-03-29T20:29:28.174Z,100887.44
2023-03-29T20:31:54.730Z,100867.25
2023-03-29T20:34:21.798Z,100875.34
2023-03-29T20:36:48.355Z,100857.25
2023-03-29T20:39:18.158Z,100847.41
2023-03-29T20:41:47.420Z,100843.53
2023-03-29T20:44:16.666Z,100824.75
2023-03-29T20:46:54.300Z,100823.00
2023-03-29T20:49:26.299Z,100822.31
2023-03-29T20:51:58.260Z,100813.41
2023-03-29T20:54:25.833Z,100818.25
2023-03-29T20:56:54.646Z,100808.19
2023-03-29T20:59:22.868Z,100802.03
2023-03-29T21:01:50.333Z,100798.63
2023-03-29T21:04:17.666Z,100791.97
2023-03-29T21:06:45.656Z,100793.13
2023-03-29T21:09:13.611Z,100793.13
2023-03-29T21:11:40.314Z,100778.22
2023-03-29T21:14:09.185Z,100790.38
2023-03-29T21:16:35.863Z,100786.00
2023-03-29T21:19:03.715Z,100780.03
2023-03-29T21:21:30.253Z,100785.53
2023-03-29T21:23:56.776Z,100787.47
2023-03-29T21:26:23.489Z,100778.44
2023-03-29T21:28:50.796Z,100774.88
2023-03-29T21:31:17.590Z,100772.13
2023-03-29T21:33:44.498Z,100763.09
2023-03-29T21:36:11.164Z,100766.16
2023-03-29T21:38:37.676Z,100757.00
2023-03-29T21:41:04.986Z,100750.69
2023-03-29T21:43:31.631Z,100752.63
2023-03-29T21:45:58.150Z,100755.25
2023-03-29T21:48:24.830Z,100753.63
2023-03-29T21:50:52.380Z,100754.59
2023-03-29T21:53:18.957Z,100739.50
2023-03-29T21:55:48.868Z,100739.38
2023-03-29T21:58:15.934Z,100731.94
2023-03-29T22:00:42.488Z,100730.31
2023-03-29T22:03:09.030Z,100727.09
2023-03-29T22:05:35.578Z,100732.94
2023-03-29T22:08:04.012Z,100730.84
2023-03-29T22:10:32.924Z,100722.28
2023-03-29T22:13:00.228Z,100715.50
2023-03-29T22:15:29.395Z,100702.44
2023-03-29T22:17:57.871Z,100700.84
2023-03-29T22:20:26.185Z,100708.75
2023-03-29T22:22:53.778Z,100713.09
2023-03-29T22:25:20.732Z,100717.78
2023-03-29T22:27:48.721Z,100714.56
2023-03-29T22:30:17.149Z,100709.75
2023-03-29T22:32:43.728Z,100715.56
2023-03-29T22:35:10.576Z,100719.31
2023-03-29T22:37:43.983Z,100716.91
2023-03-29T22:40:12.015Z,100712.56
2023-03-29T22:42:38.825Z,100711.41
2023-03-29T22:45:06.516Z,100716.56
2023-03-29T22:47:33.114Z,100709.13
2023-03-29T22:50:01.977Z,100700.56
2023-03-29T22:52:28.596Z,100708.81
2023-03-29T22:54:55.073Z,100692.81
2023-03-29T22:57:21.607Z,100689.84
2023-03-29T22:59:48.069Z,100684.69
2023-03-29T23:02:14.590Z,100681.81
2023-03-29T23:04:42.242Z,100676.31
2023-03-29T23:07:09.073Z,100677.47
2023-03-29T23:09:35.579Z,100680.53
2023-03-29T23:12:02.128Z,100674.72
2023-03-29T23:14:28.636Z,100670.97
2023-03-29T23:16:55.108Z,100674.19
2023-03-29T23:19:21.552Z,100671.56
2023-03-29T23:21:47.990Z,100661.06
2023-03-29T23:24:18.873Z,100665.06
2023-03-29T23:26:45.901Z,100666.34
2023-03-29T23:29:13.610Z,100669.09
2023-03-29T23:31:40.118Z,100662.91
2023-03-29T23:34:06.602Z,100665.34
2023-03-29T23:36:33.145Z,100660.63
2023-03-29T23:38:59.810Z,100648.47
2023-03-29T23:41:28.233Z,100650.72
2023-03-29T23:43:55.226Z,100644.72
2023-03-29T23:46:21.757Z,100647.47
2023-03-29T23:48:51.071Z,100638.13
2023-03-29T23:51:18.818Z,100640.19
2023-03-29T23:53:47.272Z,100631.28
2023-03-29T23:56:13.784Z,100639.53
2023-03-29T23:58:40.254Z,100648.56
